sensor_id;sensor_type;location;lat;lon;timestamp;temperature;humidity
48836;DHT22;62581;47.342;7.908;2023-06-10T00:01:33;21.20;99.90
48836;DHT22;62581;47.342;7.908;2023-06-10T00:04:02;21.10;99.90
48836;DHT22;62581;47.342;7.908;2023-06-10T00:06:31;21.10;99.90
48836;DHT22;62581;47.342;7.908;2023-06-10T00:09:02;21.10;99.90
48836;DHT22;62581;47.342;7.908;2023-06-10T00:11:31;21.10;99.90
48836;DHT22;62581;47.342;7.908;2023-06-10T00:13:58;21.10;99.90
48836;DHT22;62581;47.342;7.908;2023-06-10T00:16:26;21.00;99.90
48836;DHT22;62581;47.342;7.908;2023-06-10T00:18:53;20.90;99.90
48836;DHT22;62581;47.342;7.908;2023-06-10T00:21:21;20.90;99.90
48836;DHT22;62581;47.342;7.908;2023-06-10T00:23:51;20.90;99.90
48836;DHT22;62581;47.342;7.908;2023-06-10T00:26:18;20.90;99.90
48836;DHT22;62581;47.342;7.908;2023-06-10T00:28:45;20.90;99.90
48836;DHT22;62581;47.342;7.908;2023-06-10T00:31:12;20.90;99.90
48836;DHT22;62581;47.342;7.908;2023-06-10T00:33:39;20.90;99.90
48836;DHT22;62581;47.342;7.908;2023-06-10T00:36:06;20.90;99.90
48836;DHT22;62581;47.342;7.908;2023-06-10T00:38:33;20.90;99.90
48836;DHT22;62581;47.342;7.908;2023-06-10T00:41:02;20.80;99.90
48836;DHT22;62581;47.342;7.908;2023-06-10T00:43:29;20.80;99.90
48836;DHT22;62581;47.342;7.908;2023-06-10T00:45:56;20.70;99.90
48836;DHT22;62581;47.342;7.908;2023-06-10T00:48:23;20.80;99.90
48836;DHT22;62581;47.342;7.908;2023-06-10T00:50:50;20.80;99.90
48836;DHT22;62581;47.342;7.908;2023-06-10T00:53:17;20.60;99.90
48836;DHT22;62581;47.342;7.908;2023-06-10T00:55:45;20.60;99.90
48836;DHT22;62581;47.342;7.908;2023-06-10T00:58:13;20.60;99.90
48836;DHT22;62581;47.342;7.908;2023-06-10T01:00:41;20.60;99.90
48836;DHT22;62581;47.342;7.908;2023-06-10T01:03:08;20.60;99.90
48836;DHT22;62581;47.342;7.908;2023-06-10T01:05:35;20.60;99.90
48836;DHT22;62581;47.342;7.908;2023-06-10T01:08:09;20.60;99.90
48836;DHT22;62581;47.342;7.908;2023-06-10T01:10:42;20.60;99.90
48836;DHT22;62581;47.342;7.908;2023-06-10T01:13:12;20.50;99.90
48836;DHT22;62581;47.342;7.908;2023-06-10T01:15:40;20.50;99.90
48836;DHT22;62581;47.342;7.908;2023-06-10T01:18:08;20.40;99.90
48836;DHT22;62581;47.342;7.908;2023-06-10T01:20:37;20.40;99.90
48836;DHT22;62581;47.342;7.908;2023-06-10T01:23:07;20.40;99.90
48836;DHT22;62581;47.342;7.908;2023-06-10T01:25:37;20.30;99.90
48836;DHT22;62581;47.342;7.908;2023-06-10T01:28:08;20.30;99.90
48836;DHT22;62581;47.342;7.908;2023-06-10T01:30:55;20.20;99.90
48836;DHT22;62581;47.342;7.908;2023-06-10T01:33:28;20.10;99.90
48836;DHT22;62581;47.342;7.908;2023-06-10T01:35:58;20.10;99.90
48836;DHT22;62581;47.342;7.908;2023-06-10T01:38:27;20.10;99.90
48836;DHT22;62581;47.342;7.908;2023-06-10T01:40:57;20.00;99.90
48836;DHT22;62581;47.342;7.908;2023-06-10T01:43:25;19.90;99.90
48836;DHT22;62581;47.342;7.908;2023-06-10T01:45:52;19.90;99.90
48836;DHT22;62581;47.342;7.908;2023-06-10T01:48:19;19.90;99.90
48836;DHT22;62581;47.342;7.908;2023-06-10T01:50:45;19.80;99.90
48836;DHT22;62581;47.342;7.908;2023-06-10T01:53:12;19.80;99.90
48836;DHT22;62581;47.342;7.908;2023-06-10T01:55:41;19.70;99.90
48836;DHT22;62581;47.342;7.908;2023-06-10T01:58:08;19.60;99.90
48836;DHT22;62581;47.342;7.908;2023-06-10T02:00:35;19.60;99.90
48836;DHT22;62581;47.342;7.908;2023-06-10T02:03:02;19.50;99.90
48836;DHT22;62581;47.342;7.908;2023-06-10T02:05:29;19.60;99.90
48836;DHT22;62581;47.342;7.908;2023-06-10T02:07:55;19.40;99.90
48836;DHT22;62581;47.342;7.908;2023-06-10T02:10:22;19.40;99.90
48836;DHT22;62581;47.342;7.908;2023-06-10T02:12:51;19.40;99.90
48836;DHT22;62581;47.342;7.908;2023-06-10T02:15:18;19.30;99.90
48836;DHT22;62581;47.342;7.908;2023-06-10T02:17:45;19.30;99.90
48836;DHT22;62581;47.342;7.908;2023-06-10T02:20:12;19.30;99.90
48836;DHT22;62581;47.342;7.908;2023-06-10T02:22:40;19.20;99.90
48836;DHT22;62581;47.342;7.908;2023-06-10T02:25:08;19.20;99.90
48836;DHT22;62581;47.342;7.908;2023-06-10T02:27:35;19.20;99.90
48836;DHT22;62581;47.342;7.908;2023-06-10T02:30:05;19.20;99.90
48836;DHT22;62581;47.342;7.908;2023-06-10T02:32:32;19.10;99.90
48836;DHT22;62581;47.342;7.908;2023-06-10T02:34:59;19.10;99.90
48836;DHT22;62581;47.342;7.908;2023-06-10T02:37:26;19.10;99.90
48836;DHT22;62581;47.342;7.908;2023-06-10T02:39:52;19.10;99.90
48836;DHT22;62581;47.342;7.908;2023-06-10T02:42:19;19.10;99.90
48836;DHT22;62581;47.342;7.908;2023-06-10T02:44:46;19.00;99.90
48836;DHT22;62581;47.342;7.908;2023-06-10T02:47:15;19.00;99.90
48836;DHT22;62581;47.342;7.908;2023-06-10T02:49:42;19.00;99.90
48836;DHT22;62581;47.342;7.908;2023-06-10T02:52:09;18.90;99.90
48836;DHT22;62581;47.342;7.908;2023-06-10T02:54:37;18.90;99.90
48836;DHT22;62581;47.342;7.908;2023-06-10T02:57:04;18.80;99.90
48836;DHT22;62581;47.342;7.908;2023-06-10T02:59:31;18.80;99.90
48836;DHT22;62581;47.342;7.908;2023-06-10T03:01:58;18.70;99.90
48836;DHT22;62581;47.342;7.908;2023-06-10T03:04:28;18.70;99.90
48836;DHT22;62581;47.342;7.908;2023-06-10T03:06:56;18.70;99.90
48836;DHT22;62581;47.342;7.908;2023-06-10T03:09:23;18.60;99.90
48836;DHT22;62581;47.342;7.908;2023-06-10T03:11:50;18.60;99.90
48836;DHT22;62581;47.342;7.908;2023-06-10T03:14:17;18.60;99.90
48836;DHT22;62581;47.342;7.908;2023-06-10T03:16:44;18.60;99.90
48836;DHT22;62581;47.342;7.908;2023-06-10T03:19:11;18.60;99.90
48836;DHT22;62581;47.342;7.908;2023-06-10T03:21:39;18.50;99.90
48836;DHT22;62581;47.342;7.908;2023-06-10T03:24:07;18.60;99.90
48836;DHT22;62581;47.342;7.908;2023-06-10T03:26:34;18.60;99.90
48836;DHT22;62581;47.342;7.908;2023-06-10T03:29:01;18.60;99.90
48836;DHT22;62581;47.342;7.908;2023-06-10T03:31:28;18.60;99.90
48836;DHT22;62581;47.342;7.908;2023-06-10T03:33:55;18.60;99.90
48836;DHT22;62581;47.342;7.908;2023-06-10T03:36:22;18.50;99.90
48836;DHT22;62581;47.342;7.908;2023-06-10T03:38:50;18.40;99.90
48836;DHT22;62581;47.342;7.908;2023-06-10T03:41:19;18.40;99.90
48836;DHT22;62581;47.342;7.908;2023-06-10T03:43:46;18.40;99.90
48836;DHT22;62581;47.342;7.908;2023-06-10T03:46:14;18.30;99.90
48836;DHT22;62581;47.342;7.908;2023-06-10T03:48:40;18.30;99.90
48836;DHT22;62581;47.342;7.908;2023-06-10T03:51:08;18.30;99.90
48836;DHT22;62581;47.342;7.908;2023-06-10T03:53:35;18.40;99.90
48836;DHT22;62581;47.342;7.908;2023-06-10T03:56:03;18.40;99.90
48836;DHT22;62581;47.342;7.908;2023-06-10T03:58:30;18.40;99.90
48836;DHT22;62581;47.342;7.908;2023-06-10T04:00:57;18.40;99.90
48836;DHT22;62581;47.342;7.908;2023-06-10T04:03:24;18.50;99.90
48836;DHT22;62581;47.342;7.908;2023-06-10T04:05:51;18.50;99.90
48836;DHT22;62581;47.342;7.908;2023-06-10T04:08:18;18.50;99.90
48836;DHT22;62581;47.342;7.908;2023-06-10T04:10:46;18.60;99.90
48836;DHT22;62581;47.342;7.908;2023-06-10T04:13:14;18.60;99.90
48836;DHT22;62581;47.342;7.908;2023-06-10T04:15:41;18.70;99.90
48836;DHT22;62581;47.342;7.908;2023-06-10T04:18:08;18.70;99.90
48836;DHT22;62581;47.342;7.908;2023-06-10T04:20:35;18.80;99.90
48836;DHT22;62581;47.342;7.908;2023-06-10T04:23:02;18.80;99.90
48836;DHT22;62581;47.342;7.908;2023-06-10T04:25:29;18.80;99.90
48836;DHT22;62581;47.342;7.908;2023-06-10T04:27:56;18.90;99.90
48836;DHT22;62581;47.342;7.908;2023-06-10T04:30:25;18.90;99.90
48836;DHT22;62581;47.342;7.908;2023-06-10T04:32:51;18.90;99.90
48836;DHT22;62581;47.342;7.908;2023-06-10T04:35:18;19.00;99.90
48836;DHT22;62581;47.342;7.908;2023-06-10T04:37:45;19.00;99.90
48836;DHT22;62581;47.342;7.908;2023-06-10T04:40:13;19.10;99.90
48836;DHT22;62581;47.342;7.908;2023-06-10T04:42:42;19.10;99.90
48836;DHT22;62581;47.342;7.908;2023-06-10T04:45:09;19.10;99.90
48836;DHT22;62581;47.342;7.908;2023-06-10T04:47:38;19.20;99.90
48836;DHT22;62581;47.342;7.908;2023-06-10T04:50:05;19.10;99.90
48836;DHT22;62581;47.342;7.908;2023-06-10T04:52:33;19.10;99.90
48836;DHT22;62581;47.342;7.908;2023-06-10T04:55:00;19.10;99.90
48836;DHT22;62581;47.342;7.908;2023-06-10T04:57:27;19.00;99.90
48836;DHT22;62581;47.342;7.908;2023-06-10T04:59:54;19.00;99.90
48836;DHT22;62581;47.342;7.908;2023-06-10T05:02:21;19.00;99.90
48836;DHT22;62581;47.342;7.908;2023-06-10T05:04:49;19.10;99.90
48836;DHT22;62581;47.342;7.908;2023-06-10T05:07:16;19.10;99.90
48836;DHT22;62581;47.342;7.908;2023-06-10T05:09:43;19.20;99.90
48836;DHT22;62581;47.342;7.908;2023-06-10T05:12:10;19.20;99.90
48836;DHT22;62581;47.342;7.908;2023-06-10T05:14:37;19.20;99.90
48836;DHT22;62581;47.342;7.908;2023-06-10T05:17:05;19.20;99.90
48836;DHT22;62581;47.342;7.908;2023-06-10T05:19:32;19.20;99.90
48836;DHT22;62581;47.342;7.908;2023-06-10T05:22:02;19.20;99.90
48836;DHT22;62581;47.342;7.908;2023-06-10T05:24:29;19.20;99.90
48836;DHT22;62581;47.342;7.908;2023-06-10T05:26:56;19.30;99.90
48836;DHT22;62581;47.342;7.908;2023-06-10T05:29:23;19.30;99.90
48836;DHT22;62581;47.342;7.908;2023-06-10T05:31:51;19.40;99.90
48836;DHT22;62581;47.342;7.908;2023-06-10T05:34:18;19.40;99.90
48836;DHT22;62581;47.342;7.908;2023-06-10T05:36:45;19.50;99.90
48836;DHT22;62581;47.342;7.908;2023-06-10T05:39:13;19.50;99.90
48836;DHT22;62581;47.342;7.908;2023-06-10T05:41:40;19.60;99.90
48836;DHT22;62581;47.342;7.908;2023-06-10T05:44:07;19.60;99.90
48836;DHT22;62581;47.342;7.908;2023-06-10T05:46:34;19.60;99.90
48836;DHT22;62581;47.342;7.908;2023-06-10T05:49:01;19.60;99.90
48836;DHT22;62581;47.342;7.908;2023-06-10T05:51:28;19.70;99.90
48836;DHT22;62581;47.342;7.908;2023-06-10T05:53:55;19.70;99.90
48836;DHT22;62581;47.342;7.908;2023-06-10T05:56:23;19.80;99.90
48836;DHT22;62581;47.342;7.908;2023-06-10T05:58:51;19.90;99.90
48836;DHT22;62581;47.342;7.908;2023-06-10T06:01:18;19.90;99.90
48836;DHT22;62581;47.342;7.908;2023-06-10T06:03:45;20.10;99.90
48836;DHT22;62581;47.342;7.908;2023-06-10T06:06:12;20.20;99.90
48836;DHT22;62581;47.342;7.908;2023-06-10T06:08:39;20.30;99.90
48836;DHT22;62581;47.342;7.908;2023-06-10T06:11:06;20.40;99.90
48836;DHT22;62581;47.342;7.908;2023-06-10T06:13:34;20.50;99.90
48836;DHT22;62581;47.342;7.908;2023-06-10T06:16:01;20.60;99.90
48836;DHT22;62581;47.342;7.908;2023-06-10T06:18:28;20.70;99.90
48836;DHT22;62581;47.342;7.908;2023-06-10T06:20:55;20.80;99.90
48836;DHT22;62581;47.342;7.908;2023-06-10T06:23:22;20.90;99.90
48836;DHT22;62581;47.342;7.908;2023-06-10T06:25:49;21.10;99.90
48836;DHT22;62581;47.342;7.908;2023-06-10T06:28:16;21.20;99.90
48836;DHT22;62581;47.342;7.908;2023-06-10T06:30:45;21.40;99.90
48836;DHT22;62581;47.342;7.908;2023-06-10T06:33:13;21.40;99.90
48836;DHT22;62581;47.342;7.908;2023-06-10T06:35:40;21.40;99.90
48836;DHT22;62581;47.342;7.908;2023-06-10T06:38:07;21.40;99.90
48836;DHT22;62581;47.342;7.908;2023-06-10T06:40:33;21.50;99.90
48836;DHT22;62581;47.342;7.908;2023-06-10T06:43:00;21.50;99.90
48836;DHT22;62581;47.342;7.908;2023-06-10T06:45:28;21.50;99.90
48836;DHT22;62581;47.342;7.908;2023-06-10T06:47:56;21.50;99.90
48836;DHT22;62581;47.342;7.908;2023-06-10T06:50:23;21.50;99.90
48836;DHT22;62581;47.342;7.908;2023-06-10T06:52:50;21.60;99.90
48836;DHT22;62581;47.342;7.908;2023-06-10T06:55:17;21.60;99.90
48836;DHT22;62581;47.342;7.908;2023-06-10T06:57:44;21.60;99.90
48836;DHT22;62581;47.342;7.908;2023-06-10T07:00:11;21.60;99.90
48836;DHT22;62581;47.342;7.908;2023-06-10T07:02:38;21.70;99.90
48836;DHT22;62581;47.342;7.908;2023-06-10T07:05:07;21.70;99.90
48836;DHT22;62581;47.342;7.908;2023-06-10T07:07:34;21.80;99.90
48836;DHT22;62581;47.342;7.908;2023-06-10T07:10:01;21.90;99.90
48836;DHT22;62581;47.342;7.908;2023-06-10T07:12:28;22.00;99.90
48836;DHT22;62581;47.342;7.908;2023-06-10T07:14:55;22.10;99.90
48836;DHT22;62581;47.342;7.908;2023-06-10T07:17:22;22.30;99.90
48836;DHT22;62581;47.342;7.908;2023-06-10T07:19:49;22.40;99.90
48836;DHT22;62581;47.342;7.908;2023-06-10T07:22:18;22.60;99.90
48836;DHT22;62581;47.342;7.908;2023-06-10T07:24:45;22.60;99.90
48836;DHT22;62581;47.342;7.908;2023-06-10T07:27:12;22.80;99.90
48836;DHT22;62581;47.342;7.908;2023-06-10T07:29:39;22.80;99.90
48836;DHT22;62581;47.342;7.908;2023-06-10T07:32:07;22.90;99.90
48836;DHT22;62581;47.342;7.908;2023-06-10T07:34:34;22.80;99.90
48836;DHT22;62581;47.342;7.908;2023-06-10T07:37:01;22.90;99.90
48836;DHT22;62581;47.342;7.908;2023-06-10T07:39:29;23.00;99.90
48836;DHT22;62581;47.342;7.908;2023-06-10T07:41:56;23.10;99.90
48836;DHT22;62581;47.342;7.908;2023-06-10T07:44:23;23.00;99.90
48836;DHT22;62581;47.342;7.908;2023-06-10T07:46:50;23.10;99.90
48836;DHT22;62581;47.342;7.908;2023-06-10T07:49:17;23.10;99.90
48836;DHT22;62581;47.342;7.908;2023-06-10T07:51:44;23.10;99.90
48836;DHT22;62581;47.342;7.908;2023-06-10T07:54:11;23.00;99.90
48836;DHT22;62581;47.342;7.908;2023-06-10T07:56:40;22.90;99.90
48836;DHT22;62581;47.342;7.908;2023-06-10T07:59:07;22.90;99.90
48836;DHT22;62581;47.342;7.908;2023-06-10T08:01:34;23.00;99.90
48836;DHT22;62581;47.342;7.908;2023-06-10T08:04:04;23.20;99.90
48836;DHT22;62581;47.342;7.908;2023-06-10T08:06:31;23.40;99.90
48836;DHT22;62581;47.342;7.908;2023-06-10T08:08:58;23.60;99.90
48836;DHT22;62581;47.342;7.908;2023-06-10T08:11:25;23.60;99.90
48836;DHT22;62581;47.342;7.908;2023-06-10T08:13:55;23.70;99.90
48836;DHT22;62581;47.342;7.908;2023-06-10T08:16:22;23.80;99.90
48836;DHT22;62581;47.342;7.908;2023-06-10T08:18:49;23.80;99.90
48836;DHT22;62581;47.342;7.908;2023-06-10T08:21:17;23.90;99.90
48836;DHT22;62581;47.342;7.908;2023-06-10T08:23:44;24.00;99.90
48836;DHT22;62581;47.342;7.908;2023-06-10T08:26:11;24.00;99.90
48836;DHT22;62581;47.342;7.908;2023-06-10T08:28:38;24.00;99.90
48836;DHT22;62581;47.342;7.908;2023-06-10T08:31:07;24.10;99.90
48836;DHT22;62581;47.342;7.908;2023-06-10T08:33:34;24.30;99.90
48836;DHT22;62581;47.342;7.908;2023-06-10T08:36:01;24.50;99.90
48836;DHT22;62581;47.342;7.908;2023-06-10T08:38:28;24.50;99.90
48836;DHT22;62581;47.342;7.908;2023-06-10T08:40:58;24.40;99.90
48836;DHT22;62581;47.342;7.908;2023-06-10T08:43:31;24.30;99.90
48836;DHT22;62581;47.342;7.908;2023-06-10T08:46:00;24.30;99.90
48836;DHT22;62581;47.342;7.908;2023-06-10T08:48:30;24.20;99.90
48836;DHT22;62581;47.342;7.908;2023-06-10T08:50:58;24.20;99.90
48836;DHT22;62581;47.342;7.908;2023-06-10T08:53:26;24.00;99.90
48836;DHT22;62581;47.342;7.908;2023-06-10T08:55:55;24.10;99.90
48836;DHT22;62581;47.342;7.908;2023-06-10T08:58:25;24.10;99.90
48836;DHT22;62581;47.342;7.908;2023-06-10T09:00:52;24.20;99.90
48836;DHT22;62581;47.342;7.908;2023-06-10T09:03:19;24.50;99.90
48836;DHT22;62581;47.342;7.908;2023-06-10T09:05:48;24.60;99.90
48836;DHT22;62581;47.342;7.908;2023-06-10T09:08:15;24.70;99.90
48836;DHT22;62581;47.342;7.908;2023-06-10T09:10:42;24.80;99.90
48836;DHT22;62581;47.342;7.908;2023-06-10T09:13:09;24.90;99.90
48836;DHT22;62581;47.342;7.908;2023-06-10T09:15:36;24.80;99.90
48836;DHT22;62581;47.342;7.908;2023-06-10T09:18:05;24.80;99.90
48836;DHT22;62581;47.342;7.908;2023-06-10T09:20:33;24.90;99.90
48836;DHT22;62581;47.342;7.908;2023-06-10T09:23:01;25.00;99.90
48836;DHT22;62581;47.342;7.908;2023-06-10T09:25:35;25.10;99.90
48836;DHT22;62581;47.342;7.908;2023-06-10T09:28:04;25.00;99.90
48836;DHT22;62581;47.342;7.908;2023-06-10T09:30:32;25.00;99.90
48836;DHT22;62581;47.342;7.908;2023-06-10T09:33:01;24.90;99.90
48836;DHT22;62581;47.342;7.908;2023-06-10T09:35:30;24.90;99.90
48836;DHT22;62581;47.342;7.908;2023-06-10T09:37:58;25.10;99.90
48836;DHT22;62581;47.342;7.908;2023-06-10T09:40:26;25.30;99.90
48836;DHT22;62581;47.342;7.908;2023-06-10T09:42:56;25.50;99.90
48836;DHT22;62581;47.342;7.908;2023-06-10T09:45:23;25.70;99.90
48836;DHT22;62581;47.342;7.908;2023-06-10T09:47:54;25.80;99.90
48836;DHT22;62581;47.342;7.908;2023-06-10T09:50:21;25.90;99.90
48836;DHT22;62581;47.342;7.908;2023-06-10T09:52:48;25.90;99.90
48836;DHT22;62581;47.342;7.908;2023-06-10T09:55:16;26.00;99.90
48836;DHT22;62581;47.342;7.908;2023-06-10T09:57:44;26.10;99.90
48836;DHT22;62581;47.342;7.908;2023-06-10T10:00:16;26.40;99.90
48836;DHT22;62581;47.342;7.908;2023-06-10T10:02:47;26.50;99.90
48836;DHT22;62581;47.342;7.908;2023-06-10T10:05:15;26.60;98.60
48836;DHT22;62581;47.342;7.908;2023-06-10T10:07:42;26.70;98.10
48836;DHT22;62581;47.342;7.908;2023-06-10T10:10:10;26.80;97.50
48836;DHT22;62581;47.342;7.908;2023-06-10T10:12:38;27.00;97.90
48836;DHT22;62581;47.342;7.908;2023-06-10T10:15:09;26.90;95.70
48836;DHT22;62581;47.342;7.908;2023-06-10T10:17:39;26.70;96.50
48836;DHT22;62581;47.342;7.908;2023-06-10T10:20:08;26.70;96.40
48836;DHT22;62581;47.342;7.908;2023-06-10T10:22:40;27.00;96.30
48836;DHT22;62581;47.342;7.908;2023-06-10T10:25:10;27.10;95.80
48836;DHT22;62581;47.342;7.908;2023-06-10T10:27:43;27.30;95.20
48836;DHT22;62581;47.342;7.908;2023-06-10T10:30:14;27.40;95.80
48836;DHT22;62581;47.342;7.908;2023-06-10T10:32:56;27.50;94.80
48836;DHT22;62581;47.342;7.908;2023-06-10T10:35:25;27.60;94.40
48836;DHT22;62581;47.342;7.908;2023-06-10T10:37:53;27.60;93.70
48836;DHT22;62581;47.342;7.908;2023-06-10T10:40:21;27.70;93.40
48836;DHT22;62581;47.342;7.908;2023-06-10T10:42:49;27.90;93.00
48836;DHT22;62581;47.342;7.908;2023-06-10T10:45:18;27.70;92.60
48836;DHT22;62581;47.342;7.908;2023-06-10T10:47:46;27.90;93.30
48836;DHT22;62581;47.342;7.908;2023-06-10T10:50:14;27.80;92.70
48836;DHT22;62581;47.342;7.908;2023-06-10T10:52:53;27.90;91.70
48836;DHT22;62581;47.342;7.908;2023-06-10T10:55:21;28.00;91.80
48836;DHT22;62581;47.342;7.908;2023-06-10T10:57:56;28.20;91.30
48836;DHT22;62581;47.342;7.908;2023-06-10T11:00:32;28.40;91.50
48836;DHT22;62581;47.342;7.908;2023-06-10T11:03:04;28.40;91.20
48836;DHT22;62581;47.342;7.908;2023-06-10T11:05:37;28.50;90.50
48836;DHT22;62581;47.342;7.908;2023-06-10T11:08:05;28.40;90.60
48836;DHT22;62581;47.342;7.908;2023-06-10T11:10:34;28.50;89.70
48836;DHT22;62581;47.342;7.908;2023-06-10T11:13:07;28.60;90.30
48836;DHT22;62581;47.342;7.908;2023-06-10T11:15:44;28.70;87.90
48836;DHT22;62581;47.342;7.908;2023-06-10T11:18:20;28.80;87.60
48836;DHT22;62581;47.342;7.908;2023-06-10T11:20:58;28.80;89.90
48836;DHT22;62581;47.342;7.908;2023-06-10T11:23:33;28.70;89.20
48836;DHT22;62581;47.342;7.908;2023-06-10T11:26:11;28.90;88.30
48836;DHT22;62581;47.342;7.908;2023-06-10T11:28:38;28.80;85.40
48836;DHT22;62581;47.342;7.908;2023-06-10T11:31:06;28.70;85.00
48836;DHT22;62581;47.342;7.908;2023-06-10T11:33:34;28.80;84.50
48836;DHT22;62581;47.342;7.908;2023-06-10T11:36:07;29.00;83.30
48836;DHT22;62581;47.342;7.908;2023-06-10T11:38:34;29.00;83.40
48836;DHT22;62581;47.342;7.908;2023-06-10T11:41:02;29.00;83.20
48836;DHT22;62581;47.342;7.908;2023-06-10T11:43:30;29.00;82.90
48836;DHT22;62581;47.342;7.908;2023-06-10T11:45:57;29.10;83.20
48836;DHT22;62581;47.342;7.908;2023-06-10T11:48:27;29.10;81.10
48836;DHT22;62581;47.342;7.908;2023-06-10T11:50:56;29.00;82.80
48836;DHT22;62581;47.342;7.908;2023-06-10T11:53:23;29.00;82.70
48836;DHT22;62581;47.342;7.908;2023-06-10T11:55:51;29.10;81.70
48836;DHT22;62581;47.342;7.908;2023-06-10T11:58:20;29.10;82.10
48836;DHT22;62581;47.342;7.908;2023-06-10T12:00:48;29.40;80.10
48836;DHT22;62581;47.342;7.908;2023-06-10T12:03:15;29.50;80.00
48836;DHT22;62581;47.342;7.908;2023-06-10T12:05:56;29.80;79.40
48836;DHT22;62581;47.342;7.908;2023-06-10T12:08:23;30.10;78.70
48836;DHT22;62581;47.342;7.908;2023-06-10T12:10:50;30.20;77.70
48836;DHT22;62581;47.342;7.908;2023-06-10T12:13:18;30.30;77.90
48836;DHT22;62581;47.342;7.908;2023-06-10T12:15:45;30.30;75.90
48836;DHT22;62581;47.342;7.908;2023-06-10T12:18:16;30.10;75.50
48836;DHT22;62581;47.342;7.908;2023-06-10T12:20:44;30.10;72.70
48836;DHT22;62581;47.342;7.908;2023-06-10T12:23:12;30.20;73.30
48836;DHT22;62581;47.342;7.908;2023-06-10T12:25:47;30.40;73.90
48836;DHT22;62581;47.342;7.908;2023-06-10T12:28:16;30.50;74.60
48836;DHT22;62581;47.342;7.908;2023-06-10T12:30:44;30.30;75.40
48836;DHT22;62581;47.342;7.908;2023-06-10T12:33:16;30.30;74.20
48836;DHT22;62581;47.342;7.908;2023-06-10T12:35:47;30.30;73.20
48836;DHT22;62581;47.342;7.908;2023-06-10T12:38:21;30.10;74.40
48836;DHT22;62581;47.342;7.908;2023-06-10T12:40:48;30.10;74.10
48836;DHT22;62581;47.342;7.908;2023-06-10T12:43:19;30.10;74.90
48836;DHT22;62581;47.342;7.908;2023-06-10T12:45:46;30.40;73.70
48836;DHT22;62581;47.342;7.908;2023-06-10T12:48:18;30.90;73.20
48836;DHT22;62581;47.342;7.908;2023-06-10T12:50:50;31.50;72.70
48836;DHT22;62581;47.342;7.908;2023-06-10T12:53:19;33.20;70.50
48836;DHT22;62581;47.342;7.908;2023-06-10T12:55:46;34.20;64.30
48836;DHT22;62581;47.342;7.908;2023-06-10T12:58:13;35.40;62.80
48836;DHT22;62581;47.342;7.908;2023-06-10T13:00:41;36.40;59.90
48836;DHT22;62581;47.342;7.908;2023-06-10T13:03:09;37.40;57.20
48836;DHT22;62581;47.342;7.908;2023-06-10T13:05:36;38.50;56.10
48836;DHT22;62581;47.342;7.908;2023-06-10T13:08:04;39.80;54.30
48836;DHT22;62581;47.342;7.908;2023-06-10T13:10:33;40.30;51.50
48836;DHT22;62581;47.342;7.908;2023-06-10T13:13:01;40.00;50.60
48836;DHT22;62581;47.342;7.908;2023-06-10T13:15:28;40.50;50.10
48836;DHT22;62581;47.342;7.908;2023-06-10T13:17:55;40.90;50.50
48836;DHT22;62581;47.342;7.908;2023-06-10T13:20:22;41.80;49.70
48836;DHT22;62581;47.342;7.908;2023-06-10T13:22:49;42.40;48.80
48836;DHT22;62581;47.342;7.908;2023-06-10T13:25:16;42.40;49.00
48836;DHT22;62581;47.342;7.908;2023-06-10T13:27:44;42.60;48.20
48836;DHT22;62581;47.342;7.908;2023-06-10T13:30:12;42.80;48.20
48836;DHT22;62581;47.342;7.908;2023-06-10T13:32:39;43.40;47.00
48836;DHT22;62581;47.342;7.908;2023-06-10T13:35:06;43.70;45.60
48836;DHT22;62581;47.342;7.908;2023-06-10T13:37:34;44.30;45.40
48836;DHT22;62581;47.342;7.908;2023-06-10T13:40:00;44.90;45.10
48836;DHT22;62581;47.342;7.908;2023-06-10T13:42:28;44.50;44.00
48836;DHT22;62581;47.342;7.908;2023-06-10T13:44:57;45.00;43.30
48836;DHT22;62581;47.342;7.908;2023-06-10T13:47:24;45.90;42.60
48836;DHT22;62581;47.342;7.908;2023-06-10T13:49:51;46.50;41.30
48836;DHT22;62581;47.342;7.908;2023-06-10T13:52:17;47.20;41.70
48836;DHT22;62581;47.342;7.908;2023-06-10T13:54:44;48.00;41.00
48836;DHT22;62581;47.342;7.908;2023-06-10T13:57:11;48.50;39.70
48836;DHT22;62581;47.342;7.908;2023-06-10T13:59:38;48.60;39.10
48836;DHT22;62581;47.342;7.908;2023-06-10T14:02:06;49.20;38.20
48836;DHT22;62581;47.342;7.908;2023-06-10T14:04:34;49.90;37.80
48836;DHT22;62581;47.342;7.908;2023-06-10T14:07:01;50.40;37.00
48836;DHT22;62581;47.342;7.908;2023-06-10T14:09:28;48.90;36.80
48836;DHT22;62581;47.342;7.908;2023-06-10T14:11:55;48.90;36.90
48836;DHT22;62581;47.342;7.908;2023-06-10T14:14:22;49.70;37.00
48836;DHT22;62581;47.342;7.908;2023-06-10T14:16:49;50.00;36.90
48836;DHT22;62581;47.342;7.908;2023-06-10T14:19:18;50.30;35.90
48836;DHT22;62581;47.342;7.908;2023-06-10T14:21:44;50.60;36.00
48836;DHT22;62581;47.342;7.908;2023-06-10T14:24:12;50.30;36.00
48836;DHT22;62581;47.342;7.908;2023-06-10T14:26:39;50.80;35.80
48836;DHT22;62581;47.342;7.908;2023-06-10T14:29:06;50.70;35.70
48836;DHT22;62581;47.342;7.908;2023-06-10T14:31:34;50.40;36.30
48836;DHT22;62581;47.342;7.908;2023-06-10T14:34:01;51.30;35.90
48836;DHT22;62581;47.342;7.908;2023-06-10T14:36:29;51.90;35.10
48836;DHT22;62581;47.342;7.908;2023-06-10T14:38:56;52.00;34.20
48836;DHT22;62581;47.342;7.908;2023-06-10T14:41:23;52.10;34.70
48836;DHT22;62581;47.342;7.908;2023-06-10T14:43:51;52.40;34.30
48836;DHT22;62581;47.342;7.908;2023-06-10T14:46:18;52.40;34.50
48836;DHT22;62581;47.342;7.908;2023-06-10T14:48:46;52.60;34.50
48836;DHT22;62581;47.342;7.908;2023-06-10T14:51:13;52.70;33.30
48836;DHT22;62581;47.342;7.908;2023-06-10T14:53:41;52.60;33.50
48836;DHT22;62581;47.342;7.908;2023-06-10T14:56:08;52.30;33.60
48836;DHT22;62581;47.342;7.908;2023-06-10T14:58:35;51.90;33.50
48836;DHT22;62581;47.342;7.908;2023-06-10T15:01:02;51.60;33.70
48836;DHT22;62581;47.342;7.908;2023-06-10T15:03:29;51.40;34.20
48836;DHT22;62581;47.342;7.908;2023-06-10T15:05:56;51.70;34.30
48836;DHT22;62581;47.342;7.908;2023-06-10T15:08:23;51.50;33.70
48836;DHT22;62581;47.342;7.908;2023-06-10T15:10:51;51.70;33.80
48836;DHT22;62581;47.342;7.908;2023-06-10T15:13:18;50.90;34.00
48836;DHT22;62581;47.342;7.908;2023-06-10T15:15:45;50.20;34.70
48836;DHT22;62581;47.342;7.908;2023-06-10T15:18:13;50.80;34.20
48836;DHT22;62581;47.342;7.908;2023-06-10T15:20:40;50.80;35.00
48836;DHT22;62581;47.342;7.908;2023-06-10T15:23:06;50.80;34.90
48836;DHT22;62581;47.342;7.908;2023-06-10T15:25:34;50.50;35.20
48836;DHT22;62581;47.342;7.908;2023-06-10T15:28:03;50.50;36.00
48836;DHT22;62581;47.342;7.908;2023-06-10T15:30:31;51.00;35.00
48836;DHT22;62581;47.342;7.908;2023-06-10T15:32:58;51.40;34.80
48836;DHT22;62581;47.342;7.908;2023-06-10T15:35:25;50.80;35.10